Time;durP1;ratioP1;P1;durP2;ratioP2;P2;SDS_P1;SDS_P2;PMS_P1;PMS_P2;Temp;Humidity;BMP_temperature;BMP_pressure;BME280_temperature;BME280_humidity;BME280_pressure;Samples;Min_cycle;Max_cycle;Signal;HPM_P1;HPM_P2
2022/10/27 00:00:50;;;;;;;12.90;10.27;;;;;;;14.46;53.83;95529.72;4176904;28;20115;-61
2022/10/27 00:02:52;;;;;;;13.07;8.82;;;;;;;14.52;53.69;95525.63;4176580;28;20140;-62
2022/10/27 00:04:54;;;;;;;13.30;6.95;;;;;;;14.51;53.72;95534.50;4178080;28;20486;-63
2022/10/27 00:06:55;;;;;;;12.73;7.43;;;;;;;14.52;53.80;95536.16;4180006;28;20136;-63
2022/10/27 00:08:57;;;;;;;14.88;6.25;;;;;;;14.53;54.04;95532.53;4180748;28;20498;-62
2022/10/27 00:11:02;;;;;;;7.70;6.05;;;;;;;14.52;54.14;95544.06;4180410;28;20136;-63
2022/10/27 00:13:06;;;;;;;9.10;5.47;;;;;;;14.54;53.92;95542.09;4180763;28;20049;-65
2022/10/27 00:15:08;;;;;;;10.63;6.20;;;;;;;14.56;53.77;95534.84;4180434;28;20088;-63
2022/10/27 00:17:10;;;;;;;14.03;6.83;;;;;;;14.57;53.72;95533.88;4180534;28;20708;-62
2022/10/27 00:19:12;;;;;;;9.23;6.10;;;;;;;14.56;53.54;95532.22;4172426;28;20045;-62
2022/10/27 00:21:16;;;;;;;12.75;6.72;;;;;;;14.53;53.63;95533.34;4173071;28;20072;-63
2022/10/27 00:23:18;;;;;;;12.60;5.95;;;;;;;14.52;54.06;95536.97;4180502;28;20681;-63
2022/10/27 00:25:20;;;;;;;9.23;5.40;;;;;;;14.51;53.38;95530.03;4176523;28;20100;-64
2022/10/27 00:27:21;;;;;;;10.43;6.15;;;;;;;14.47;53.68;95538.44;4163960;28;20141;-63
2022/10/27 00:29:23;;;;;;;8.32;5.53;;;;;;;14.46;53.57;95536.81;4174888;28;20056;-63
2022/10/27 00:31:25;;;;;;;15.15;6.15;;;;;;;14.43;53.51;95537.13;4178817;28;20106;-63
2022/10/27 00:33:27;;;;;;;9.75;6.10;;;;;;;14.43;53.61;95539.75;4180347;28;20238;-63
2022/10/27 00:35:29;;;;;;;10.95;6.40;;;;;;;14.38;53.50;95542.88;4179828;28;20122;-63
2022/10/27 00:37:30;;;;;;;8.93;5.70;;;;;;;14.29;53.67;95534.13;4180356;28;20106;-62
2022/10/27 00:39:32;;;;;;;10.35;5.90;;;;;;;14.24;53.72;95536.44;4180135;28;20049;-62
2022/10/27 00:41:39;;;;;;;8.93;5.53;;;;;;;14.18;54.27;95539.72;4180151;28;20131;-62
2022/10/27 00:43:41;;;;;;;9.68;6.45;;;;;;;13.92;53.93;95547.69;4180279;28;20053;-64
2022/10/27 00:45:42;;;;;;;14.60;5.80;;;;;;;13.71;54.29;95550.72;4179246;28;20076;-64
2022/10/27 00:47:44;;;;;;;9.27;5.95;;;;;;;13.60;54.13;95551.81;4179169;28;20041;-63
2022/10/27 00:49:52;;;;;;;10.32;5.55;;;;;;;13.49;54.57;95557.38;4178864;28;20136;-63
2022/10/27 00:51:59;;;;;;;12.15;5.97;;;;;;;13.43;55.11;95561.44;4177800;28;20214;-63
2022/10/27 00:54:01;;;;;;;13.80;5.70;;;;;;;13.55;55.11;95554.13;4180380;28;20064;-61
2022/10/27 00:56:03;;;;;;;8.90;5.68;;;;;;;13.69;55.11;95557.97;4166132;28;20175;-62
2022/10/27 00:58:08;;;;;;;12.35;5.63;;;;;;;13.65;54.73;95556.63;4170282;28;20520;-62
2022/10/27 01:00:10;;;;;;;12.93;5.60;;;;;;;13.65;54.65;95565.34;4179005;28;20092;-62
2022/10/27 01:02:12;;;;;;;14.63;5.93;;;;;;;13.70;55.08;95565.72;4180024;28;20081;-62
2022/10/27 01:04:15;;;;;;;10.95;6.68;;;;;;;13.77;54.50;95563.28;4180130;28;20040;-61
2022/10/27 01:06:17;;;;;;;12.55;7.32;;;;;;;13.87;54.64;95563.13;4178711;28;20063;-63
2022/10/27 01:08:22;;;;;;;8.68;5.80;;;;;;;13.93;54.55;95565.13;4179366;28;20144;-62
2022/10/27 01:10:25;;;;;;;12.20;6.75;;;;;;;14.00;54.25;95570.59;4194252;28;20056;-62
2022/10/27 01:12:27;;;;;;;10.50;6.63;;;;;;;14.07;54.39;95564.53;4178530;28;20053;-63
2022/10/27 01:14:28;;;;;;;11.35;6.63;;;;;;;14.14;54.15;95562.09;4179876;28;20076;-62
2022/10/27 01:16:40;;;;;;;10.60;6.50;;;;;;;14.19;53.70;95566.88;4190043;28;20049;-63
2022/10/27 01:18:47;;;;;;;12.40;7.50;;;;;;;14.22;53.94;95564.75;4162660;28;20046;-63
2022/10/27 01:21:21;;;;;;;12.55;7.13;;;;;;;14.22;53.88;95574.44;4172078;28;20063;-63
2022/10/27 01:23:32;;;;;;;13.35;6.25;;;;;;;14.27;53.85;95572.19;4161189;28;20123;-62
2022/10/27 01:25:51;;;;;;;9.85;6.10;;;;;;;14.28;53.74;95568.53;4176909;28;20068;-63
2022/10/27 01:28:21;;;;;;;13.85;6.55;;;;;;;14.27;54.00;95573.00;4177768;28;20067;-63
2022/10/27 01:30:23;;;;;;;12.10;6.47;;;;;;;14.27;53.67;95582.72;4176582;28;20120;-63
2022/10/27 01:32:38;;;;;;;12.43;6.70;;;;;;;14.23;53.61;95578.75;4174238;28;20740;-65
2022/10/27 01:35:12;;;;;;;12.43;7.20;;;;;;;14.08;53.58;95578.53;4175076;28;20306;-64
2022/10/27 01:37:14;;;;;;;10.30;6.43;;;;;;;13.93;54.11;95583.56;4174299;28;20059;-65
2022/10/27 01:39:22;;;;;;;14.63;7.00;;;;;;;13.86;54.64;95575.47;4179513;28;20128;-63
2022/10/27 01:41:35;;;;;;;10.77;7.00;;;;;;;13.37;55.71;95580.47;4176763;28;20149;-63
2022/10/27 01:43:38;;;;;;;17.95;7.57;;;;;;;13.20;56.46;95573.41;4177800;28;20107;-62
2022/10/27 01:45:40;;;;;;;12.50;6.75;;;;;;;13.03;56.81;95585.63;4173798;28;20132;-64
2022/10/27 01:47:42;;;;;;;15.55;7.82;;;;;;;13.05;57.11;95576.59;4177634;28;20049;-62
2022/10/27 01:49:44;;;;;;;11.57;7.22;;;;;;;13.19;56.65;95577.84;4171593;28;20132;-62
2022/10/27 01:51:47;;;;;;;15.68;7.35;;;;;;;13.32;56.73;95572.22;4170526;28;20591;-63
2022/10/27 01:53:50;;;;;;;12.88;6.80;;;;;;;13.44;56.17;95573.63;4178367;28;20045;-62
2022/10/27 01:56:04;;;;;;;11.05;6.95;;;;;;;13.58;55.62;95566.13;4164574;28;20049;-64
2022/10/27 01:58:43;;;;;;;12.73;6.78;;;;;;;13.70;55.73;95562.22;4172593;28;20064;-62
2022/10/27 02:00:54;;;;;;;11.32;6.35;;;;;;;13.76;55.71;95553.69;4161609;28;20490;-63
2022/10/27 02:03:13;;;;;;;10.23;6.53;;;;;;;13.82;55.63;95571.50;4162882;28;20466;-63
2022/10/27 02:05:21;;;;;;;9.00;5.90;;;;;;;13.81;55.23;95569.03;4174575;28;20571;-64
2022/10/27 02:07:48;;;;;;;9.70;5.28;;;;;;;13.84;55.39;95561.66;4173320;28;20528;-63
2022/10/27 02:09:58;;;;;;;10.25;5.43;;;;;;;13.87;55.52;95560.50;4160847;28;20132;-63
2022/10/27 02:12:03;;;;;;;10.50;5.72;;;;;;;13.87;55.96;95556.06;4162330;28;20394;-63
2022/10/27 02:14:05;;;;;;;9.45;6.03;;;;;;;13.87;55.82;95557.88;4162877;28;20052;-64
2022/10/27 02:16:28;;;;;;;7.82;5.43;;;;;;;13.85;55.77;95563.31;4171863;28;20112;-64
2022/10/27 02:18:32;;;;;;;10.13;5.40;;;;;;;13.88;55.95;95562.97;4181560;28;20120;-63
2022/10/27 02:20:44;;;;;;;9.50;5.40;;;;;;;13.90;55.66;95558.38;4161832;28;20077;-63
2022/10/27 02:22:48;;;;;;;11.18;5.40;;;;;;;13.93;55.93;95565.13;4172701;28;20135;-64
2022/10/27 02:24:52;;;;;;;10.50;5.35;;;;;;;13.92;56.09;95568.78;4167638;28;20045;-64
2022/10/27 02:27:14;;;;;;;9.13;5.30;;;;;;;13.90;55.99;95574.19;4184167;28;20069;-63
2022/10/27 02:29:20;;;;;;;10.73;5.32;;;;;;;13.60;56.76;95572.88;4176054;28;20079;-63
2022/10/27 02:31:35;;;;;;;9.55;5.50;;;;;;;13.09;58.35;95583.19;4192505;28;20525;-64
2022/10/27 02:33:36;;;;;;;10.80;5.78;;;;;;;13.10;58.31;95586.69;4169700;28;20088;-63
2022/10/27 02:35:38;;;;;;;8.63;5.20;;;;;;;13.19;58.04;95577.84;4168984;28;20137;-63
2022/10/27 02:37:43;;;;;;;11.45;5.65;;;;;;;13.26;58.04;95578.88;4176152;28;20072;-63
2022/10/27 02:39:45;;;;;;;8.95;5.30;;;;;;;13.33;57.91;95579.13;4176825;28;20072;-63
2022/10/27 02:41:46;;;;;;;8.75;5.05;;;;;;;13.42;57.49;95586.13;4178550;28;20055;-64
2022/10/27 02:43:48;;;;;;;7.78;5.10;;;;;;;13.50;57.28;95585.31;4177811;28;20048;-63
2022/10/27 02:45:50;;;;;;;9.25;5.00;;;;;;;13.55;57.22;95592.75;4161209;28;20089;-62
2022/10/27 02:47:51;;;;;;;11.25;5.35;;;;;;;13.59;56.84;95594.91;4171780;28;20128;-63
2022/10/27 02:49:53;;;;;;;9.48;5.07;;;;;;;13.57;56.74;95596.88;4178311;28;20552;-66
2022/10/27 02:51:55;;;;;;;7.95;4.95;;;;;;;13.59;56.83;95591.47;4170540;28;20089;-63
2022/10/27 02:53:56;;;;;;;9.05;5.40;;;;;;;13.60;56.81;95591.31;4178156;28;20059;-63
2022/10/27 02:55:58;;;;;;;9.82;5.35;;;;;;;13.61;57.24;95584.22;4177453;28;20481;-63
2022/10/27 02:58:00;;;;;;;11.35;5.65;;;;;;;13.61;57.11;95594.75;4166595;28;20136;-63
2022/10/27 03:00:02;;;;;;;9.52;5.78;;;;;;;13.65;56.85;95589.03;4164887;28;20059;-62
2022/10/27 03:02:03;;;;;;;11.25;6.05;;;;;;;13.62;57.20;95593.81;4160894;28;20087;-62
2022/10/27 03:04:05;;;;;;;15.38;6.00;;;;;;;13.59;57.44;95591.47;4165676;28;20075;-63
2022/10/27 03:06:07;;;;;;;13.48;6.35;;;;;;;13.61;57.15;95590.31;4177729;28;20080;-64
2022/10/27 03:08:08;;;;;;;10.63;5.55;;;;;;;13.66;56.64;95597.78;4177746;28;20132;-63
2022/10/27 03:10:10;;;;;;;10.15;5.88;;;;;;;13.69;57.01;95603.53;4177498;28;20056;-61
2022/10/27 03:12:13;;;;;;;10.02;5.97;;;;;;;13.43;57.30;95605.34;4178292;28;20049;-62
2022/10/27 03:14:14;;;;;;;9.65;5.35;;;;;;;13.01;58.16;95616.50;4178270;28;20539;-62
2022/10/27 03:16:16;;;;;;;10.68;6.72;;;;;;;12.66;59.55;95618.16;4175169;28;20140;-64
2022/10/27 03:18:18;;;;;;;13.63;6.45;;;;;;;12.53;60.31;95617.72;4176493;28;20818;-61
2022/10/27 03:20:19;;;;;;;13.70;6.47;;;;;;;12.35;61.05;95622.94;4175107;28;20136;-64
2022/10/27 03:22:21;;;;;;;12.70;5.50;;;;;;;12.37;60.91;95619.19;4161672;28;20088;-61
2022/10/27 03:24:23;;;;;;;12.23;6.35;;;;;;;12.28;61.13;95625.31;4161731;28;20410;-63
2022/10/27 03:26:24;;;;;;;15.98;6.57;;;;;;;12.11;61.94;95626.94;4173231;28;20055;-66
2022/10/27 03:28:29;;;;;;;11.68;7.15;;;;;;;12.07;61.76;95622.94;4175614;28;20618;-64
2022/10/27 03:30:30;;;;;;;9.82;6.55;;;;;;;12.05;61.69;95628.34;4169726;28;20514;-62
2022/10/27 03:32:32;;;;;;;13.38;6.72;;;;;;;12.20;61.78;95626.06;4170734;28;20473;-63
2022/10/27 03:34:34;;;;;;;16.67;7.20;;;;;;;12.37;61.26;95618.34;4165982;28;20132;-63
2022/10/27 03:36:36;;;;;;;10.57;6.65;;;;;;;12.62;60.96;95622.88;4162458;28;20092;-64
2022/10/27 03:38:37;;;;;;;13.80;6.07;;;;;;;12.82;60.44;95620.13;4177307;28;20147;-64
2022/10/27 03:40:39;;;;;;;12.63;5.90;;;;;;;12.98;59.81;95616.81;4174000;28;20521;-62
2022/10/27 03:42:41;;;;;;;14.02;6.22;;;;;;;13.14;58.95;95618.75;4171542;28;20136;-65
2022/10/27 03:44:43;;;;;;;10.40;6.25;;;;;;;13.21;58.66;95617.19;4181000;28;20088;-65
2022/10/27 03:46:45;;;;;;;11.68;6.97;;;;;;;13.32;58.67;95614.34;4179321;28;20063;-63
2022/10/27 03:48:46;;;;;;;10.63;6.13;;;;;;;13.39;58.13;95619.81;4165960;28;20486;-64
2022/10/27 03:50:49;;;;;;;12.55;7.55;;;;;;;13.45;58.10;95616.56;4170944;28;20124;-67
2022/10/27 03:52:51;;;;;;;13.57;6.80;;;;;;;13.51;57.76;95608.88;4171930;28;20050;-64
2022/10/27 03:54:53;;;;;;;18.25;6.65;;;;;;;13.57;57.87;95612.66;4166060;28;20293;-62
2022/10/27 03:56:54;;;;;;;15.15;6.72;;;;;;;13.59;57.65;95612.53;4174410;28;20533;-63
2022/10/27 03:58:56;;;;;;;11.27;6.53;;;;;;;13.62;57.57;95606.97;4183342;28;20044;-63
2022/10/27 04:01:02;;;;;;;9.90;6.50;;;;;;;13.65;57.69;95607.47;4170920;28;20512;-62
2022/10/27 04:03:04;;;;;;;12.95;6.95;;;;;;;13.70;57.89;95613.09;4173039;28;20049;-64
2022/10/27 04:05:06;;;;;;;15.95;7.00;;;;;;;13.72;57.81;95613.78;4175123;28;20053;-64
2022/10/27 04:07:07;;;;;;;12.05;7.45;;;;;;;13.74;57.18;95603.06;4180097;28;20068;-65
2022/10/27 04:09:09;;;;;;;14.80;7.65;;;;;;;13.70;57.44;95612.25;4174797;28;20084;-64
2022/10/27 04:11:11;;;;;;;11.57;7.18;;;;;;;13.64;57.54;95602.38;4175045;28;20449;-59
2022/10/27 04:13:13;;;;;;;18.10;7.78;;;;;;;13.69;57.88;95611.44;4174978;28;20048;-61
2022/10/27 04:15:15;;;;;;;14.60;7.05;;;;;;;13.75;57.85;95610.00;4170671;28;20045;-59
2022/10/27 04:17:17;;;;;;;12.70;7.03;;;;;;;13.72;57.50;95616.41;4170370;28;20137;-62
2022/10/27 04:19:20;;;;;;;16.50;7.32;;;;;;;13.68;57.26;95619.47;4179640;28;20460;-60
2022/10/27 04:21:21;;;;;;;12.90;7.25;;;;;;;13.59;57.46;95623.06;4177586;28;20071;-63
2022/10/27 04:23:23;;;;;;;12.00;7.32;;;;;;;13.45;57.75;95625.28;4177325;28;20080;-61
2022/10/27 04:25:25;;;;;;;11.73;6.45;;;;;;;13.37;57.67;95627.84;4171700;28;20089;-58
2022/10/27 04:27:27;;;;;;;9.30;5.85;;;;;;;13.36;58.17;95636.72;4175604;28;20076;-59
2022/10/27 04:29:29;;;;;;;15.43;6.35;;;;;;;13.41;58.00;95631.00;4180747;28;20049;-58
2022/10/27 04:31:31;;;;;;;12.80;6.47;;;;;;;13.41;57.80;95628.38;4177824;28;20099;-61
2022/10/27 04:33:33;;;;;;;13.18;6.72;;;;;;;13.41;58.19;95629.19;4173315;28;20087;-60
2022/10/27 04:35:34;;;;;;;12.77;7.30;;;;;;;13.43;58.36;95631.69;4178360;28;20081;-59
2022/10/27 04:37:36;;;;;;;17.45;7.22;;;;;;;13.40;58.70;95637.22;4180281;28;20053;-59
2022/10/27 04:39:38;;;;;;;12.18;7.47;;;;;;;13.34;58.27;95633.44;4173726;28;20060;-60
2022/10/27 04:41:40;;;;;;;17.88;7.90;;;;;;;13.31;58.40;95636.34;4177687;28;20055;-59
2022/10/27 04:43:42;;;;;;;22.60;7.95;;;;;;;13.27;58.97;95630.56;4173647;28;20052;-58
2022/10/27 04:45:45;;;;;;;15.10;7.57;;;;;;;13.32;58.98;95641.47;4175842;28;20056;-59
2022/10/27 04:47:47;;;;;;;22.75;8.45;;;;;;;13.39;58.73;95631.16;4170117;28;20068;-59
2022/10/27 04:49:49;;;;;;;11.73;7.22;;;;;;;13.40;58.45;95632.81;4176537;28;20045;-60
2022/10/27 04:51:51;;;;;;;18.67;9.10;;;;;;;13.40;58.51;95630.19;4171785;28;20064;-59
2022/10/27 04:53:53;;;;;;;18.27;8.88;;;;;;;13.43;58.65;95632.50;4179589;28;20094;-60
2022/10/27 04:55:54;;;;;;;18.35;10.02;;;;;;;13.48;58.24;95635.47;4166224;28;20429;-60
2022/10/27 04:57:56;;;;;;;25.40;12.50;;;;;;;13.52;58.26;95628.13;4180140;28;20106;-60
2022/10/27 04:59:58;;;;;;;19.10;12.57;;;;;;;13.46;58.08;95640.06;4169361;28;20049;-59
2022/10/27 05:01:59;;;;;;;21.52;11.10;;;;;;;13.37;58.80;95640.19;4174423;28;20141;-59
2022/10/27 05:04:01;;;;;;;34.03;9.80;;;;;;;13.03;59.40;95644.31;4164813;28;20099;-60
2022/10/27 05:06:04;;;;;;;20.77;10.00;;;;;;;12.85;60.16;95638.25;4173351;28;20136;-56
2022/10/27 05:08:06;;;;;;;33.92;10.55;;;;;;;12.86;60.16;95645.13;4173868;28;20080;-60
2022/10/27 05:10:08;;;;;;;29.40;10.75;;;;;;;12.88;60.08;95653.69;4166760;28;20454;-58
2022/10/27 05:12:09;;;;;;;26.58;11.40;;;;;;;12.90;60.06;95655.19;4167334;28;20104;-59
2022/10/27 05:14:11;;;;;;;27.40;10.93;;;;;;;12.90;60.50;95662.28;4178264;28;20657;-59
2022/10/27 05:16:13;;;;;;;31.60;11.43;;;;;;;12.84;60.59;95663.72;4178381;28;20136;-60
2022/10/27 05:18:15;;;;;;;25.67;12.13;;;;;;;12.85;60.70;95675.06;4168260;28;20057;-59
2022/10/27 05:20:17;;;;;;;25.15;10.32;;;;;;;12.94;60.55;95671.50;4176344;28;20069;-60
2022/10/27 05:22:18;;;;;;;21.98;9.80;;;;;;;12.88;59.69;95675.59;4163552;28;20057;-58
2022/10/27 05:24:20;;;;;;;22.10;9.18;;;;;;;12.50;60.78;95688.00;4174718;28;20110;-59
2022/10/27 05:26:22;;;;;;;19.20;9.02;;;;;;;12.16;61.41;95687.72;4178904;28;20057;-61
2022/10/27 05:28:23;;;;;;;19.15;9.45;;;;;;;12.12;61.42;95689.00;4178901;28;20128;-58
2022/10/27 05:30:25;;;;;;;23.38;9.48;;;;;;;12.18;61.25;95698.94;4174926;28;20136;-59
2022/10/27 05:32:27;;;;;;;24.52;9.30;;;;;;;12.19;61.17;95703.19;4179935;28;20053;-60
2022/10/27 05:34:28;;;;;;;26.95;10.93;;;;;;;12.02;61.48;95703.94;4169301;28;20462;-61
2022/10/27 05:36:30;;;;;;;25.83;10.82;;;;;;;11.80;61.70;95711.16;4171946;28;20045;-59
2022/10/27 05:38:32;;;;;;;24.73;11.48;;;;;;;11.45;62.68;95717.84;4171219;28;20155;-59
2022/10/27 05:40:33;;;;;;;21.80;10.98;;;;;;;11.56;62.65;95711.63;4175409;28;20049;-61
2022/10/27 05:42:35;;;;;;;20.27;11.02;;;;;;;11.60;62.52;95720.06;4178175;28;20136;-60
2022/10/27 05:44:36;;;;;;;19.40;10.07;;;;;;;11.76;62.41;95720.28;4179539;28;20041;-59
2022/10/27 05:46:38;;;;;;;20.88;10.63;;;;;;;11.99;61.91;95725.25;4174123;28;20379;-59
2022/10/27 05:48:41;;;;;;;24.55;10.40;;;;;;;12.17;60.87;95727.97;4171720;28;20055;-59
2022/10/27 05:50:42;;;;;;;23.98;10.63;;;;;;;12.35;60.18;95730.69;4164607;28;20405;-60
2022/10/27 05:52:45;;;;;;;22.85;10.85;;;;;;;12.47;59.45;95729.50;4177178;28;20135;-60
2022/10/27 05:54:47;;;;;;;29.17;12.90;;;;;;;12.52;59.48;95732.53;4169593;28;20052;-57
2022/10/27 05:56:49;;;;;;;37.08;14.98;;;;;;;12.38;59.42;95740.88;4179051;28;20481;-59
2022/10/27 05:58:51;;;;;;;36.42;15.80;;;;;;;11.98;60.61;95736.72;4165851;28;20136;-58
2022/10/27 06:00:57;;;;;;;34.65;15.82;;;;;;;11.57;62.67;95751.81;4172726;28;20052;-57
2022/10/27 06:03:00;;;;;;;44.42;15.88;;;;;;;11.26;63.58;95744.91;4170979;28;20049;-60
2022/10/27 06:05:01;;;;;;;45.90;17.00;;;;;;;11.44;63.27;95749.47;4166014;28;20402;-60
2022/10/27 06:07:03;;;;;;;37.33;17.23;;;;;;;11.68;62.70;95741.19;4175261;28;20528;-59
2022/10/27 06:09:05;;;;;;;35.08;16.80;;;;;;;11.97;61.12;95743.78;4167688;28;20056;-60
2022/10/27 06:11:06;;;;;;;34.80;17.40;;;;;;;12.26;60.83;95737.59;4170337;28;20479;-58
2022/10/27 06:13:09;;;;;;;32.13;14.82;;;;;;;12.51;59.71;95736.13;4174826;28;20056;-60
2022/10/27 06:15:11;;;;;;;30.40;13.17;;;;;;;12.72;58.97;95743.78;4164508;28;20056;-60
2022/10/27 06:17:12;;;;;;;22.00;11.75;;;;;;;12.89;57.85;95747.41;4172720;28;20279;-59
2022/10/27 06:19:14;;;;;;;25.30;12.07;;;;;;;13.05;57.70;95752.84;4171850;28;20044;-59
2022/10/27 06:21:16;;;;;;;23.08;10.98;;;;;;;13.17;57.12;95761.34;4166668;28;20050;-60
2022/10/27 06:23:17;;;;;;;24.83;11.25;;;;;;;13.27;56.79;95758.63;4162309;28;20136;-59
2022/10/27 06:25:19;;;;;;;20.95;12.38;;;;;;;13.31;56.42;95752.13;4165668;28;20068;-59
2022/10/27 06:27:21;;;;;;;26.42;13.02;;;;;;;13.38;56.42;95750.56;4172033;28;20041;-56
2022/10/27 06:29:22;;;;;;;23.58;13.98;;;;;;;13.49;56.50;95752.97;4172762;28;20077;-60
2022/10/27 06:31:24;;;;;;;25.20;14.07;;;;;;;13.53;56.73;95764.03;4177181;28;20048;-60
2022/10/27 06:33:26;;;;;;;24.48;13.27;;;;;;;13.57;56.51;95761.91;4178673;28;20095;-61
2022/10/27 06:35:27;;;;;;;22.83;12.35;;;;;;;13.47;56.62;95764.63;4171460;28;20137;-66
2022/10/27 06:37:29;;;;;;;26.67;12.52;;;;;;;13.58;56.57;95766.22;4170809;28;20455;-63
2022/10/27 06:39:31;;;;;;;24.80;11.73;;;;;;;13.43;56.83;95765.91;4176027;28;20136;-66
2022/10/27 06:41:33;;;;;;;22.75;12.02;;;;;;;13.36;57.06;95776.22;4177354;28;20087;-64
2022/10/27 06:43:34;;;;;;;24.38;12.68;;;;;;;13.11;57.60;95786.44;4178660;28;20049;-64
2022/10/27 06:45:36;;;;;;;25.88;14.20;;;;;;;12.91;58.18;95784.91;4173706;28;20083;-65
2022/10/27 06:47:38;;;;;;;25.85;13.32;;;;;;;13.07;58.28;95784.25;4172790;28;20144;-65
2022/10/27 06:49:40;;;;;;;32.55;12.82;;;;;;;13.29;58.25;95783.03;4171062;28;20077;-64
2022/10/27 06:51:41;;;;;;;24.63;11.82;;;;;;;13.44;57.70;95778.09;4168485;28;20076;-66
2022/10/27 06:53:43;;;;;;;21.67;11.50;;;;;;;13.70;57.79;95772.88;4178353;28;20053;-62
2022/10/27 06:55:45;;;;;;;26.48;12.27;;;;;;;13.89;56.30;95775.34;4176963;28;20060;-68
2022/10/27 06:57:46;;;;;;;24.42;12.65;;;;;;;14.13;55.72;95771.22;4178717;28;20568;-63
2022/10/27 06:59:49;;;;;;;19.85;10.52;;;;;;;14.31;54.99;95771.19;4178422;28;20117;-61
2022/10/27 07:01:50;;;;;;;22.92;9.57;;;;;;;14.53;54.66;95769.81;4173045;28;20128;-61
2022/10/27 07:03:52;;;;;;;16.83;8.85;;;;;;;14.66;54.18;95767.59;4166487;28;20053;-61
2022/10/27 07:05:54;;;;;;;18.83;8.55;;;;;;;14.85;53.58;95771.00;4178062;28;20136;-60
2022/10/27 07:07:56;;;;;;;25.10;9.35;;;;;;;15.01;53.02;95772.84;4178037;28;20127;-58
2022/10/27 07:09:57;;;;;;;12.90;7.03;;;;;;;15.07;52.23;95773.03;4178385;28;20132;-60
2022/10/27 07:11:59;;;;;;;14.77;7.28;;;;;;;14.87;52.17;95777.75;4164521;28;20140;-60
2022/10/27 07:14:01;;;;;;;13.05;5.45;;;;;;;14.20;53.61;95785.47;4177544;28;20049;-59
2022/10/27 07:16:03;;;;;;;16.90;6.55;;;;;;;13.80;55.04;95793.88;4178109;28;20494;-62
2022/10/27 07:18:06;;;;;;;16.77;8.10;;;;;;;13.88;55.17;95789.50;4177067;28;20164;-60
2022/10/27 07:20:08;;;;;;;;;;;;;;;13.87;55.65;95793.13;4180702;28;20080;-60
2022/10/27 07:22:10;;;;;;;12.85;6.75;;;;;;;13.99;55.15;95793.69;4180653;28;20214;-61
2022/10/27 07:24:11;;;;;;;16.75;7.45;;;;;;;14.16;54.64;95789.38;4180582;28;20048;-60
2022/10/27 07:26:15;;;;;;;14.65;7.25;;;;;;;14.36;54.36;95791.81;4179876;28;20652;-61
2022/10/27 07:28:16;;;;;;;18.70;8.23;;;;;;;14.49;53.09;95798.31;4177289;28;20041;-57
2022/10/27 07:30:22;;;;;;;18.45;8.40;;;;;;;14.27;53.91;95799.66;4168122;28;20467;-59
2022/10/27 07:32:24;;;;;;;15.25;8.32;;;;;;;14.36;53.56;95803.16;4174783;28;20053;-58
2022/10/27 07:34:26;;;;;;;14.15;8.30;;;;;;;14.40;53.11;95809.78;4181382;28;20149;-61
2022/10/27 07:36:27;;;;;;;18.10;10.85;;;;;;;14.42;53.12;95809.66;4169157;28;20041;-59
2022/10/27 07:38:29;;;;;;;11.18;6.10;;;;;;;14.31;52.99;95806.28;4181231;28;20520;-59
2022/10/27 07:40:31;;;;;;;19.77;6.45;;;;;;;14.53;52.71;95804.09;4178475;28;20045;-61
2022/10/27 07:42:55;;;;;;;13.15;6.32;;;;;;;14.84;52.12;95801.81;4177885;28;20106;-60
2022/10/27 07:44:57;;;;;;;16.40;9.57;;;;;;;14.88;51.57;95803.13;4173890;28;20128;-62
2022/10/27 07:46:59;;;;;;;14.82;6.50;;;;;;;14.93;51.57;95811.41;4170550;28;20462;-61
2022/10/27 07:49:00;;;;;;;12.15;6.43;;;;;;;15.04;51.00;95807.66;4177627;28;20140;-60
2022/10/27 07:51:02;;;;;;;14.30;6.97;;;;;;;15.19;50.98;95815.00;4166221;28;20489;-62
2022/10/27 07:53:04;;;;;;;15.40;7.32;;;;;;;15.32;50.66;95805.59;4181174;28;20152;-58
2022/10/27 07:55:06;;;;;;;12.15;6.47;;;;;;;15.50;50.26;95808.13;4181037;28;20148;-59
2022/10/27 07:57:12;;;;;;;15.23;6.97;;;;;;;15.56;49.86;95812.75;4180599;28;20072;-57
2022/10/27 07:59:13;;;;;;;13.35;7.07;;;;;;;15.70;49.83;95803.38;4164802;28;20053;-60
2022/10/27 08:01:15;;;;;;;12.48;6.32;;;;;;;15.92;49.34;95809.03;4163707;28;20184;-59
2022/10/27 08:03:24;;;;;;;15.48;6.22;;;;;;;15.84;48.61;95806.38;4166947;28;20049;-59
2022/10/27 08:05:27;;;;;;;13.63;5.20;;;;;;;15.87;48.67;95798.13;4178858;28;20565;-59
2022/10/27 08:07:29;;;;;;;8.75;4.68;;;;;;;15.86;48.85;95799.94;4180888;28;20104;-59
2022/10/27 08:09:35;;;;;;;14.27;4.97;;;;;;;16.07;48.77;95796.00;4181023;28;20470;-62
2022/10/27 08:11:37;;;;;;;9.43;4.85;;;;;;;16.27;48.30;95789.34;4180251;28;20166;-59
2022/10/27 08:13:39;;;;;;;7.28;4.90;;;;;;;16.49;48.00;95787.00;4167750;28;20154;-62
2022/10/27 08:15:40;;;;;;;9.75;5.40;;;;;;;16.67;47.15;95790.25;4179696;28;20049;-60
2022/10/27 08:17:42;;;;;;;16.27;5.13;;;;;;;16.81;46.77;95790.56;4177115;28;20132;-60
2022/10/27 08:19:44;;;;;;;8.25;4.72;;;;;;;16.98;46.66;95789.50;4167088;28;20137;-61
2022/10/27 08:21:46;;;;;;;9.23;4.57;;;;;;;17.12;46.14;95794.09;4166426;28;20053;-59
2022/10/27 08:23:47;;;;;;;8.85;5.05;;;;;;;17.23;46.01;95797.31;4176608;28;20041;-62
2022/10/27 08:25:49;;;;;;;9.18;5.82;;;;;;;17.18;45.88;95795.19;4170393;28;20056;-59
2022/10/27 08:27:51;;;;;;;14.65;5.88;;;;;;;17.25;46.28;95800.63;4180715;28;20449;-60
2022/10/27 08:29:53;;;;;;;13.48;5.88;;;;;;;16.91;46.20;95791.19;4180042;28;20083;-59
2022/10/27 08:31:55;;;;;;;13.10;5.38;;;;;;;16.73;46.82;95789.53;4179327;28;20049;-61
2022/10/27 08:33:56;;;;;;;11.93;5.88;;;;;;;16.88;46.84;95794.16;4180647;28;20080;-59
2022/10/27 08:36:00;;;;;;;14.75;5.57;;;;;;;16.80;46.83;95795.03;4169341;28;20445;-61
2022/10/27 08:38:07;;;;;;;11.98;5.00;;;;;;;16.72;46.88;95795.84;4166230;28;20454;-60
2022/10/27 08:40:09;;;;;;;8.63;5.35;;;;;;;16.75;46.72;95792.84;4178516;28;20124;-62
2022/10/27 08:42:25;;;;;;;15.30;5.90;;;;;;;16.65;47.12;95797.53;4176625;28;20132;-61
2022/10/27 08:44:45;;;;;;;8.60;4.43;;;;;;;16.74;46.57;95796.50;4165544;28;20057;-60
2022/10/27 08:46:50;;;;;;;10.30;4.43;;;;;;;17.04;46.25;95791.47;4181696;28;20123;-59
2022/10/27 08:48:55;;;;;;;12.32;5.03;;;;;;;17.37;45.82;95793.94;4178759;28;20048;-62
2022/10/27 08:50:56;;;;;;;8.27;5.03;;;;;;;17.64;44.99;95797.09;4162895;28;20081;-61
2022/10/27 08:53:02;;;;;;;8.07;4.15;;;;;;;17.90;44.03;95786.19;4173851;28;20489;-61
2022/10/27 08:55:11;;;;;;;15.07;5.00;;;;;;;17.80;43.79;95786.38;4162399;28;20502;-64
2022/10/27 08:57:20;;;;;;;7.45;4.00;;;;;;;17.97;43.26;95785.28;4164281;28;20140;-61
2022/10/27 08:59:23;;;;;;;6.65;3.92;;;;;;;18.10;43.22;95789.97;4178944;28;20049;-60
2022/10/27 09:01:47;;;;;;;10.32;4.95;;;;;;;18.22;42.97;95790.38;4179094;28;20072;-61
2022/10/27 09:04:07;;;;;;;8.37;4.43;;;;;;;18.44;43.42;95787.84;4186882;28;20563;-61
2022/10/27 09:06:15;;;;;;;9.38;4.75;;;;;;;18.67;42.99;95787.75;4190932;28;20080;-59
2022/10/27 09:08:36;;;;;;;13.27;4.35;;;;;;;18.88;41.64;95789.72;4170577;28;20525;-61
2022/10/27 09:10:41;;;;;;;8.13;4.15;;;;;;;19.01;41.67;95785.44;4163803;28;20129;-60
2022/10/27 09:12:51;;;;;;;11.90;5.25;;;;;;;19.09;41.57;95787.13;4174083;28;20128;-59
2022/10/27 09:15:15;;;;;;;14.15;4.80;;;;;;;19.22;41.61;95781.97;4171523;28;20421;-59
2022/10/27 09:17:23;;;;;;;9.18;4.70;;;;;;;19.37;41.53;95786.44;4171149;28;20049;-61
2022/10/27 09:19:32;;;;;;;17.65;6.40;;;;;;;19.41;40.89;95785.06;4178732;28;20056;-67
2022/10/27 09:21:36;;;;;;;23.85;10.00;;;;;;;19.29;40.82;95784.72;4167122;28;20148;-65
2022/10/27 09:23:43;;;;;;;13.43;6.72;;;;;;;19.27;41.29;95777.94;4178267;28;20595;-66
2022/10/27 09:25:46;;;;;;;11.60;5.63;;;;;;;19.27;41.35;95780.59;4179452;28;20585;-67
2022/10/27 09:27:54;;;;;;;10.55;4.90;;;;;;;19.38;41.21;95780.09;4179802;28;20140;-66
2022/10/27 09:30:04;;;;;;;13.15;6.97;;;;;;;19.21;40.60;95780.34;4178857;28;20049;-66
2022/10/27 09:32:28;;;;;;;13.73;5.95;;;;;;;18.65;41.54;95774.69;4177820;28;20049;-62
2022/10/27 09:35:01;;;;;;;9.57;4.82;;;;;;;18.57;41.61;95778.25;4179771;28;20061;-61
2022/10/27 09:37:13;;;;;;;11.60;5.30;;;;;;;18.69;41.49;95775.97;4169672;28;20061;-59